Time;durP1;ratioP1;P1;durP2;ratioP2;P2;SDS_P1;SDS_P2;PMS_P1;PMS_P2;Temp;Humidity;BMP_temperature;BMP_pressure;BME280_temperature;BME280_humidity;BME280_pressure;Samples;Min_cycle;Max_cycle;Signal;HPM_P1;HPM_P2
2022/11/29 00:46:05;;;;;;;43.30;27.02;;;;;;;3.69;94.85;100897.03;5043911;28;20055;-78
2022/11/29 04:40:12;;;;;;;51.58;30.38;;;;;;;3.99;92.92;100948.31;5058248;28;20051;-80
2022/11/29 06:16:29;;;;;;;49.08;30.13;;;;;;;3.83;94.74;101027.75;5052793;28;20072;-79
2022/11/29 06:49:36;;;;;;;49.75;29.75;;;;;;;3.80;94.72;101056.47;5050608;28;20040;-80
2022/11/29 06:52:37;;;;;;;49.83;28.23;;;;;;;3.83;95.38;101059.00;5050333;28;20104;-79
2022/11/29 06:55:14;;;;;;;47.20;28.77;;;;;;;3.81;94.89;101061.63;5051256;28;20140;-80
2022/11/29 06:57:54;;;;;;;45.45;27.25;;;;;;;3.78;95.11;101068.66;5038780;28;20197;-80
2022/11/29 07:00:27;;;;;;;46.42;28.33;;;;;;;3.79;95.29;101071.25;5070011;28;20103;-80
2022/11/29 07:03:36;;;;;;;47.80;28.48;;;;;;;3.83;95.46;101072.03;5041007;28;20072;-79
2022/11/29 07:06:14;;;;;;;48.08;28.63;;;;;;;3.81;94.43;101076.41;5059515;28;20112;-78
2022/11/29 07:08:42;;;;;;;49.33;27.45;;;;;;;3.86;94.71;101076.28;5023412;28;20144;-80
2022/11/29 07:11:11;;;;;;;43.20;27.52;;;;;;;3.82;94.59;101072.91;5036400;28;20119;-80
2022/11/29 07:13:38;;;;;;;44.45;28.23;;;;;;;3.81;94.71;101069.44;5036422;28;20159;-81
2022/11/29 07:16:25;;;;;;;49.50;27.75;;;;;;;3.79;94.52;101076.44;5015677;28;20434;-81
2022/11/29 07:19:16;;;;;;;41.63;26.75;;;;;;;3.83;95.51;101081.56;5039154;28;20137;-79
2022/11/29 07:22:22;;;;;;;41.42;26.27;;;;;;;3.90;94.16;101076.19;5022658;28;21997;-79
2022/11/29 07:24:52;;;;;;;42.28;26.25;;;;;;;3.89;94.33;101081.44;5055179;28;20124;-80
2022/11/29 07:27:28;;;;;;;45.50;26.25;;;;;;;3.84;94.22;101081.53;5051066;28;20136;-80
2022/11/29 07:30:22;;;;;;;43.17;27.02;;;;;;;3.80;94.27;101085.13;5035466;28;20116;-79
2022/11/29 07:33:13;;;;;;;44.63;26.90;;;;;;;3.82;95.27;101085.91;5030674;28;20533;-78
2022/11/29 07:36:01;;;;;;;41.35;26.33;;;;;;;3.88;95.17;101096.22;5050818;28;20104;-79
2022/11/29 07:38:40;;;;;;;43.78;25.95;;;;;;;3.85;94.74;101096.28;5053642;28;20057;-78
2022/11/29 07:41:24;;;;;;;44.05;26.70;;;;;;;3.84;94.96;101093.72;5040273;28;20109;-79
2022/11/29 07:44:03;;;;;;;47.40;28.35;;;;;;;3.88;94.94;101098.81;5054972;28;20116;-78
2022/11/29 07:46:30;;;;;;;43.72;26.20;;;;;;;3.96;94.10;101096.00;5042449;28;20123;-81
2022/11/29 07:48:58;;;;;;;49.17;29.15;;;;;;;4.01;94.50;101099.38;5060063;28;20081;-81
2022/11/29 07:51:26;;;;;;;46.60;28.00;;;;;;;4.01;93.58;101105.44;5046362;28;20096;-80
2022/11/29 07:53:53;;;;;;;44.03;27.15;;;;;;;4.01;94.53;101108.06;5051982;28;20057;-80
2022/11/29 07:56:21;;;;;;;44.40;26.42;;;;;;;4.02;94.19;101103.69;5063500;28;20096;-80
2022/11/29 07:58:55;;;;;;;43.63;27.60;;;;;;;3.98;94.51;101110.72;5059691;28;20056;-81
2022/11/29 08:01:23;;;;;;;43.88;26.52;;;;;;;4.02;93.86;101111.50;5042208;28;20525;-80
2022/11/29 08:03:50;;;;;;;45.42;28.00;;;;;;;4.04;93.92;101113.16;5016423;28;20048;-81
2022/11/29 08:06:25;;;;;;;45.97;26.00;;;;;;;4.07;93.75;101120.06;5031380;28;20057;-79
2022/11/29 08:08:52;;;;;;;40.83;26.40;;;;;;;4.12;93.72;101114.75;5014024;28;20711;-81
2022/11/29 08:11:20;;;;;;;45.90;27.58;;;;;;;4.09;93.86;101117.41;5037803;28;20128;-80
2022/11/29 08:13:47;;;;;;;48.00;27.60;;;;;;;4.09;94.16;101115.66;5038957;28;20108;-81
2022/11/29 08:16:18;;;;;;;44.25;26.73;;;;;;;4.15;94.05;101117.28;5018759;28;20033;-81
2022/11/29 08:18:46;;;;;;;42.22;27.08;;;;;;;4.18;92.94;101122.41;5019416;28;20135;-81
2022/11/29 08:21:51;;;;;;;41.88;27.42;;;;;;;4.20;93.40;101118.88;5058496;28;20063;-79
2022/11/29 08:24:50;;;;;;;43.70;26.15;;;;;;;4.19;93.59;101124.13;4943808;28;20137;-79
2022/11/29 08:31:22;;;;;;;46.83;26.80;;;;;;;4.24;93.08;101128.34;5038176;28;20075;-79
2022/11/29 08:34:35;;;;;;;46.47;25.42;;;;;;;4.25;93.14;101129.19;5024856;28;20496;-79
2022/11/29 08:37:10;;;;;;;49.75;27.23;;;;;;;4.28;93.24;101129.13;5046440;28;20706;-79
2022/11/29 08:40:30;;;;;;;46.20;26.20;;;;;;;4.34;93.26;101134.16;5029350;28;20121;-80
2022/11/29 08:43:04;;;;;;;42.80;25.98;;;;;;;4.39;92.46;101127.09;5016379;28;20112;-80
2022/11/29 08:45:35;;;;;;;42.42;27.05;;;;;;;4.43;92.45;101127.88;5022373;28;20097;-80
2022/11/29 08:48:12;;;;;;;41.53;26.05;;;;;;;4.45;92.22;101132.13;5038542;28;20481;-80
2022/11/29 08:50:49;;;;;;;46.20;29.50;;;;;;;4.46;92.27;101133.88;5050246;28;20132;-80
2022/11/29 08:56:30;;;;;;;42.65;26.73;;;;;;;4.47;92.25;101134.72;4973296;28;20042;-79
2022/11/29 08:59:21;;;;;;;43.60;26.27;;;;;;;4.48;92.55;101131.22;5047065;28;20072;-80
2022/11/29 09:01:54;;;;;;;42.67;25.27;;;;;;;4.45;92.32;101133.88;5049501;28;20104;-78
2022/11/29 09:04:50;;;;;;;46.47;27.42;;;;;;;4.50;92.61;101137.22;5032329;28;20075;-79
2022/11/29 09:07:38;;;;;;;46.28;26.98;;;;;;;4.56;93.13;101137.09;5029245;28;20679;-79
2022/11/29 09:10:20;;;;;;;45.80;27.73;;;;;;;4.53;92.82;101134.56;5011758;28;20109;-79
2022/11/29 09:12:55;;;;;;;44.97;26.30;;;;;;;4.50;92.81;101140.72;5038092;28;20113;-81
2022/11/29 09:15:27;;;;;;;45.05;28.70;;;;;;;4.48;93.05;101142.50;5024473;28;20157;-79
2022/11/29 09:18:03;;;;;;;45.53;28.88;;;;;;;4.53;93.04;101151.03;5030686;28;20524;-79
2022/11/29 09:20:35;;;;;;;44.25;25.70;;;;;;;4.58;92.89;101153.53;5043964;28;20092;-78
2022/11/29 09:23:09;;;;;;;44.33;26.27;;;;;;;4.61;92.52;101153.47;5015258;28;20060;-79
2022/11/29 09:26:10;;;;;;;45.05;25.85;;;;;;;4.63;92.51;101154.28;5030384;28;20064;-80
2022/11/29 09:29:35;;;;;;;43.07;26.47;;;;;;;4.72;92.09;101151.41;5010154;28;20136;-78
2022/11/29 09:33:20;;;;;;;47.13;30.17;;;;;;;4.84;92.06;101155.47;5025771;28;20057;-79
2022/11/29 09:36:31;;;;;;;44.75;26.52;;;;;;;4.88;91.64;101148.44;5023478;28;20643;-80
2022/11/29 09:39:49;;;;;;;;;;;;;;;;;;;;;
2022/11/29 09:42:58;;;;;;;46.03;27.88;;;;;;;4.93;91.62;101160.44;5041995;28;20136;-80
2022/11/29 09:46:14;;;;;;;43.33;26.83;;;;;;;4.86;91.51;101153.66;5043154;28;20105;-80
2022/11/29 09:49:54;;;;;;;41.53;25.58;;;;;;;4.93;91.52;101156.97;5035307;28;20456;-80
2022/11/29 09:53:19;;;;;;;44.10;26.75;;;;;;;4.93;91.50;101154.38;5019913;28;20116;-80
2022/11/29 09:56:35;;;;;;;47.60;28.00;;;;;;;4.97;91.63;101156.84;5059128;28;20125;-80
2022/11/29 10:03:14;;;;;;;43.03;26.67;;;;;;;5.10;90.98;101157.38;5028512;28;20097;-80
2022/11/29 10:06:38;;;;;;;41.42;26.77;;;;;;;5.11;90.73;101156.47;5038505;28;20118;-79
2022/11/29 10:10:29;;;;;;;;;;;;;;;;;;;;;
2022/11/29 10:13:43;;;;;;;42.63;26.65;;;;;;;5.05;90.89;101160.13;4999017;28;20055;-78
2022/11/29 10:16:55;;;;;;;42.75;29.10;;;;;;;5.09;90.71;101166.13;4993544;28;20128;-80
2022/11/29 10:20:16;;;;;;;45.33;29.42;;;;;;;5.07;91.22;101165.28;5043988;28;20156;-81
2022/11/29 10:27:16;;;;;;;42.50;27.40;;;;;;;5.11;90.85;101176.50;4980986;28;20205;-80
2022/11/29 10:30:40;;;;;;;44.42;29.27;;;;;;;5.07;91.08;101179.19;5055482;28;20041;-80
2022/11/29 10:33:36;;;;;;;44.72;26.77;;;;;;;5.13;91.35;101174.69;5048602;28;20120;-79
2022/11/29 10:37:08;;;;;;;43.97;27.00;;;;;;;5.15;91.14;101176.38;5046660;28;20089;-81
2022/11/29 10:39:56;;;;;;;44.83;28.23;;;;;;;5.16;91.04;101175.47;5049802;28;20088;-79
2022/11/29 10:42:47;;;;;;;47.13;29.20;;;;;;;5.16;91.34;101177.22;5048953;28;20097;-80
2022/11/29 10:45:58;;;;;;;;;;;;;;;;;;;;;
2022/11/29 10:48:56;;;;;;;;;;;;;;;5.23;91.54;101179.63;4991602;28;20117;-81
2022/11/29 10:51:39;;;;;;;47.95;27.52;;;;;;;5.24;90.71;101183.09;4996517;28;19988;-80
2022/11/29 10:58:53;;;;;;;;;;;;;;;;;;;;;
2022/11/29 11:02:31;;;;;;;50.15;28.60;;;;;;;5.26;90.85;101187.34;4907896;29;20609;-83
2022/11/29 11:06:12;;;;;;;52.55;29.05;;;;;;;5.20;90.93;101178.84;4952032;28;20069;-80
2022/11/29 11:09:14;;;;;;;41.72;25.73;;;;;;;5.19;91.05;101177.16;4991654;28;20069;-81
2022/11/29 11:12:18;;;;;;;;;;;;;;;5.25;91.09;101179.56;5053105;28;20232;-79
2022/11/29 11:18:04;;;;;;;42.85;27.90;;;;;;;5.27;90.79;101181.25;4986884;28;20551;-63
2022/11/29 11:20:34;;;;;;;47.13;28.50;;;;;;;5.31;90.88;101175.06;5001481;28;20053;-63
2022/11/29 11:23:04;;;;;;;51.55;28.73;;;;;;;5.33;90.62;101182.84;5022774;28;20406;-62
2022/11/29 11:25:34;;;;;;;52.05;31.63;;;;;;;5.30;91.30;101185.53;5008187;28;20045;-61
2022/11/29 11:28:14;;;;;;;43.05;26.77;;;;;;;5.29;91.32;101187.28;5030628;28;20050;-61
2022/11/29 11:31:01;;;;;;;44.85;28.70;;;;;;;5.27;91.15;101177.78;5059865;23;20480;-60
2022/11/29 11:33:34;;;;;;;50.88;31.92;;;;;;;5.15;91.30;101192.03;5057749;28;20044;-59
2022/11/29 11:36:06;;;;;;;47.03;28.52;;;;;;;5.18;91.37;101196.28;5049088;28;20046;-63
2022/11/29 11:38:36;;;;;;;44.70;30.80;;;;;;;5.24;91.27;101185.69;5063106;28;20055;-61
2022/11/29 11:44:29;;;;;;;41.85;27.15;;;;;;;5.27;91.45;101189.09;5046386;28;20060;-62
2022/11/29 11:47:30;;;;;;;49.22;29.20;;;;;;;5.29;91.34;101189.03;5032684;28;20049;-61
2022/11/29 11:50:01;;;;;;;48.33;29.55;;;;;;;5.31;91.09;101189.84;5043726;28;20057;-61
2022/11/29 11:52:32;;;;;;;50.45;30.98;;;;;;;5.30;91.39;101190.75;5041738;28;20139;-62
2022/11/29 11:55:21;;;;;;;48.03;29.17;;;;;;;5.21;91.38;101186.63;5043286;28;20044;-61
2022/11/29 11:58:00;;;;;;;46.60;27.55;;;;;;;5.20;91.59;101189.28;5046509;28;20049;-62
2022/11/29 12:00:48;;;;;;;45.97;28.77;;;;;;;5.18;91.65;101201.50;5045269;28;20513;-63
2022/11/29 12:03:40;;;;;;;;;;;;;;;5.22;91.96;101198.81;5042457;28;20057;-64
2022/11/29 12:06:45;;;;;;;49.40;32.45;;;;;;;5.27;91.99;101202.13;5023585;28;19920;-63
2022/11/29 12:09:18;;;;;;;47.08;29.13;;;;;;;5.30;91.49;101198.56;5042618;28;20060;-62
2022/11/29 12:12:06;;;;;;;49.60;29.77;;;;;;;5.31;91.66;101205.50;5043269;28;20047;-61
2022/11/29 12:14:41;;;;;;;48.05;27.50;;;;;;;5.36;91.50;101198.41;5044130;28;20049;-63
2022/11/29 12:17:25;;;;;;;53.15;32.85;;;;;;;5.41;91.70;101195.69;5042503;28;20045;-63
2022/11/29 12:20:12;;;;;;;46.22;28.88;;;;;;;5.45;91.30;101200.78;5044340;28;20071;-62
2022/11/29 12:22:49;;;;;;;42.75;27.42;;;;;;;5.50;91.26;101200.63;5044412;28;20060;-62
2022/11/29 12:25:22;;;;;;;49.97;29.00;;;;;;;5.52;91.22;101209.28;5039993;28;20497;-62
2022/11/29 12:27:52;;;;;;;48.65;30.08;;;;;;;5.52;91.27;101204.03;5025291;28;20078;-64
2022/11/29 12:30:20;;;;;;;50.92;34.45;;;;;;;5.51;90.62;101205.81;5029076;28;20051;-61
2022/11/29 12:33:19;;;;;;;48.67;29.80;;;;;;;5.43;90.65;101212.16;5029549;28;20533;-61
2022/11/29 12:35:58;;;;;;;50.20;30.27;;;;;;;5.45;90.95;101216.44;5025003;28;20059;-62
2022/11/29 12:39:03;;;;;;;46.10;29.63;;;;;;;5.45;90.63;101213.81;5032431;28;20049;-62
2022/11/29 12:41:40;;;;;;;59.25;33.95;;;;;;;5.37;91.00;101218.41;5026936;28;20075;-62
2022/11/29 12:44:36;;;;;;;50.47;30.75;;;;;;;5.41;90.91;101217.41;5029589;28;20042;-61
2022/11/29 12:47:19;;;;;;;49.92;29.70;;;;;;;5.46;91.18;101217.28;5041118;28;20055;-61
2022/11/29 12:50:37;;;;;;;54.03;30.48;;;;;;;5.45;90.93;101221.66;5041881;28;20045;-60
2022/11/29 12:53:33;;;;;;;47.90;29.23;;;;;;;5.49;91.14;101222.41;5037024;28;20051;-66
2022/11/29 12:56:19;;;;;;;50.38;31.52;;;;;;;5.49;90.78;101227.63;5045867;28;20516;-62
2022/11/29 12:59:08;;;;;;;49.17;30.38;;;;;;;5.42;90.52;101231.31;5036644;28;20041;-61
2022/11/29 13:01:50;;;;;;;56.05;34.78;;;;;;;5.40;91.16;101236.56;5035028;28;20512;-59
2022/11/29 13:04:46;;;;;;;52.50;31.95;;;;;;;5.46;90.99;101238.19;5051358;28;20075;-61
2022/11/29 13:07:40;;;;;;;46.92;30.48;;;;;;;5.41;90.96;101237.47;5041155;28;20059;-58
2022/11/29 13:10:52;;;;;;;59.85;35.83;;;;;;;5.43;90.81;101238.25;5045799;28;20048;-61
2022/11/29 13:13:37;;;;;;;50.30;31.17;;;;;;;5.34;90.93;101239.38;5044523;28;20044;-60
2022/11/29 13:16:14;;;;;;;52.13;31.67;;;;;;;5.33;90.68;101243.72;5046307;28;20051;-60
2022/11/29 13:19:12;;;;;;;48.30;31.35;;;;;;;5.31;91.02;101239.44;5043457;28;20045;-62
2022/11/29 13:21:53;;;;;;;48.08;30.77;;;;;;;5.31;91.34;101235.09;5045377;28;20052;-59
2022/11/29 13:24:43;;;;;;;53.80;32.90;;;;;;;5.31;91.46;101242.94;5027902;28;20044;-62
2022/11/29 13:27:22;;;;;;;50.13;31.45;;;;;;;5.36;91.53;101240.19;5025302;28;20103;-62
2022/11/29 13:29:50;;;;;;;53.10;31.98;;;;;;;5.38;91.15;101245.38;5043428;28;20083;-62
2022/11/29 13:32:38;;;;;;;55.50;34.53;;;;;;;5.40;91.55;101244.41;5045357;28;21292;-63
2022/11/29 13:35:29;;;;;;;49.08;31.67;;;;;;;5.38;91.02;101248.81;5043463;28;20647;-63
2022/11/29 13:38:27;;;;;;;55.72;30.92;;;;;;;5.43;91.36;101251.31;5047738;28;20528;-63
2022/11/29 13:41:32;;;;;;;54.85;34.40;;;;;;;5.44;90.69;101256.47;5050883;28;20056;-62
2022/11/29 13:44:11;;;;;;;58.03;33.25;;;;;;;5.40;90.42;101259.22;5043704;28;20045;-63
2022/11/29 13:47:08;;;;;;;52.40;32.35;;;;;;;5.30;90.88;101253.41;5056872;28;20127;-62
2022/11/29 13:49:54;;;;;;;52.33;31.35;;;;;;;5.30;90.93;101261.22;5039917;28;20112;-63
2022/11/29 13:52:34;;;;;;;53.00;32.45;;;;;;;5.23;91.02;101254.47;5032702;28;20075;-60
2022/11/29 13:55:05;;;;;;;58.88;36.63;;;;;;;5.25;91.70;101257.88;5049740;28;20049;-62
2022/11/29 13:58:00;;;;;;;47.55;30.38;;;;;;;5.28;91.43;101250.84;5042926;28;20049;-62
2022/11/29 14:00:43;;;;;;;52.60;32.15;;;;;;;5.36;91.41;101260.19;5030570;28;20037;-61
2022/11/29 14:03:20;;;;;;;50.33;32.13;;;;;;;5.36;91.28;101257.59;5048267;28;20052;-62
2022/11/29 14:05:51;;;;;;;52.10;33.58;;;;;;;5.36;91.32;101258.47;5047790;28;20045;-63
2022/11/29 14:08:22;;;;;;;58.33;32.45;;;;;;;5.33;91.28;101259.41;5022215;28;20061;-64
2022/11/29 14:10:51;;;;;;;52.80;30.90;;;;;;;5.34;91.68;101262.84;5047959;28;20045;-64
2022/11/29 14:13:21;;;;;;;63.22;33.45;;;;;;;5.40;91.67;101260.06;5044414;28;20049;-64
2022/11/29 14:15:55;;;;;;;54.08;31.88;;;;;;;5.38;91.32;101263.63;5051356;28;20057;-64
2022/11/29 14:18:41;;;;;;;56.72;36.50;;;;;;;5.46;91.13;101266.91;5047185;28;20056;-63
2022/11/29 14:21:08;;;;;;;53.60;31.10;;;;;;;5.44;91.08;101264.31;5048119;28;20045;-63
2022/11/29 14:23:39;;;;;;;48.78;31.98;;;;;;;5.46;90.82;101270.38;5042009;28;20059;-64
2022/11/29 14:26:06;;;;;;;50.80;32.65;;;;;;;5.44;91.02;101269.53;5044781;28;20067;-63
2022/11/29 14:28:34;;;;;;;56.28;33.78;;;;;;;5.40;91.22;101267.91;5044832;28;20049;-62
2022/11/29 14:31:03;;;;;;;56.33;32.97;;;;;;;5.43;90.82;101273.06;5043493;28;20045;-63
2022/11/29 14:33:46;;;;;;;56.20;32.65;;;;;;;5.42;90.76;101278.31;5026011;28;20049;-64
2022/11/29 14:36:13;;;;;;;55.88;31.35;;;;;;;5.42;90.79;101281.78;5045307;28;20504;-63
2022/11/29 14:39:03;;;;;;;55.63;34.88;;;;;;;5.32;90.81;101277.72;5039353;28;20045;-62
2022/11/29 14:46:46;;;;;;;51.40;31.40;;;;;;;5.35;91.29;101282.84;5038895;28;20095;-61
2022/11/29 14:49:20;;;;;;;53.92;34.22;;;;;;;5.32;91.34;101289.03;5042939;28;20064;-64
2022/11/29 14:52:08;;;;;;;50.20;31.08;;;;;;;5.37;91.37;101290.66;5049234;28;20041;-63
2022/11/29 14:54:51;;;;;;;51.45;30.70;;;;;;;5.37;91.26;101291.50;5041523;28;20049;-64
2022/11/29 14:57:45;;;;;;;51.90;31.25;;;;;;;5.40;91.51;101296.63;5046679;28;20057;-64
2022/11/29 15:00:31;;;;;;;59.40;35.60;;;;;;;5.39;91.85;101291.47;5037971;28;20060;-63
2022/11/29 15:03:16;;;;;;;55.58;32.40;;;;;;;5.33;91.67;101289.88;5040728;28;20063;-63
2022/11/29 16:26:03;;;;;;;51.85;33.53;;;;;;;5.17;92.82;101356.41;5056033;28;20040;-62
